createdAt,value
2018-12-16T00:01:30.222Z,-1.10
2018-12-16T00:03:58.277Z,-1.10
2018-12-16T00:06:26.353Z,-1.10
2018-12-16T00:08:54.434Z,-1.20
2018-12-16T00:11:22.536Z,-1.20
2018-12-16T00:13:50.664Z,-1.20
2018-12-16T00:16:18.708Z,-1.30
2018-12-16T00:18:46.801Z,-1.30
2018-12-16T00:21:14.945Z,-1.30
2018-12-16T00:23:43.010Z,-1.30
2018-12-16T00:26:11.145Z,-1.40
2018-12-16T00:28:39.223Z,-1.40
2018-12-16T00:31:07.300Z,-1.40
2018-12-16T00:33:35.454Z,-1.50
2018-12-16T00:36:03.658Z,-1.50
2018-12-16T00:38:31.790Z,-1.50
2018-12-16T00:40:59.903Z,-1.50
2018-12-16T00:43:27.965Z,-1.60
2018-12-16T00:45:56.058Z,-1.60
2018-12-16T00:48:24.154Z,-1.60
2018-12-16T00:50:52.243Z,-1.60
2018-12-16T00:53:20.437Z,-1.70
2018-12-16T00:55:48.500Z,-1.70
2018-12-16T00:58:16.866Z,-1.70
2018-12-16T01:00:45.007Z,-1.70
2018-12-16T01:03:13.088Z,-1.80
2018-12-16T01:05:41.208Z,-1.80
2018-12-16T01:08:09.383Z,-1.80
2018-12-16T01:10:37.455Z,-1.80
2018-12-16T01:13:05.517Z,-1.80
2018-12-16T01:15:33.904Z,-1.90
2018-12-16T01:18:01.950Z,-1.90
2018-12-16T01:20:30.044Z,-1.90
2018-12-16T01:22:58.123Z,-1.90
2018-12-16T01:25:26.287Z,-1.90
2018-12-16T01:27:55.072Z,-1.90
2018-12-16T01:30:23.247Z,-2.00
2018-12-16T01:32:51.289Z,-2.00
2018-12-16T01:35:19.440Z,-2.10
2018-12-16T01:37:47.723Z,-2.10
2018-12-16T01:40:15.877Z,-2.20
2018-12-16T01:42:44.176Z,-2.20
2018-12-16T01:45:12.341Z,-2.20
2018-12-16T01:47:40.423Z,-2.20
2018-12-16T01:50:08.565Z,-2.20
2018-12-16T01:52:36.635Z,-2.20
2018-12-16T01:55:07.406Z,-2.20
2018-12-16T01:57:35.429Z,-2.10
2018-12-16T02:00:06.736Z,-2.10
2018-12-16T02:02:34.832Z,-2.10
2018-12-16T02:05:03.386Z,-2.00
2018-12-16T02:07:31.538Z,-2.00
2018-12-16T02:09:59.662Z,-2.00
2018-12-16T02:12:27.782Z,-2.00
2018-12-16T02:14:55.867Z,-2.00
2018-12-16T02:17:23.956Z,-2.00
2018-12-16T02:19:52.128Z,-2.00
2018-12-16T02:22:20.480Z,-2.00
2018-12-16T02:24:48.570Z,-2.00
2018-12-16T02:27:16.674Z,-2.00
2018-12-16T02:29:44.776Z,-2.10
2018-12-16T02:32:13.523Z,-2.10
2018-12-16T02:34:42.026Z,-2.10
2018-12-16T02:37:10.124Z,-2.10
2018-12-16T02:39:38.230Z,-2.20
2018-12-16T02:42:06.323Z,-2.20
2018-12-16T02:44:34.442Z,-2.20
2018-12-16T02:47:02.509Z,-2.20
2018-12-16T02:49:30.613Z,-2.20
2018-12-16T02:51:58.736Z,-2.20
2018-12-16T02:54:26.880Z,-2.20
2018-12-16T02:56:55.056Z,-2.20
2018-12-16T02:59:23.114Z,-2.20
2018-12-16T03:01:51.177Z,-2.20
2018-12-16T03:04:19.286Z,-2.30
2018-12-16T03:06:47.392Z,-2.30
2018-12-16T03:09:15.471Z,-2.20
2018-12-16T03:11:43.560Z,-2.20
2018-12-16T03:14:11.678Z,-2.20
2018-12-16T03:16:39.768Z,-2.20
2018-12-16T03:19:07.896Z,-2.20
2018-12-16T03:21:35.986Z,-2.20
2018-12-16T03:24:04.065Z,-2.20
2018-12-16T03:26:35.942Z,-2.20
2018-12-16T03:29:02.204Z,-2.10
2018-12-16T03:31:30.340Z,-2.10
2018-12-16T03:33:58.462Z,-2.10
2018-12-16T03:36:26.736Z,-2.10
2018-12-16T03:38:54.911Z,-2.10
2018-12-16T03:41:23.081Z,-2.10
2018-12-16T03:43:51.227Z,-2.10
2018-12-16T03:46:19.425Z,-2.10
2018-12-16T03:48:47.597Z,-2.10
2018-12-16T03:51:15.764Z,-2.10
2018-12-16T03:53:43.900Z,-2.10
2018-12-16T03:56:12.075Z,-2.10
2018-12-16T03:58:47.871Z,-2.00
2018-12-16T04:01:15.972Z,-2.00
2018-12-16T04:03:44.084Z,-2.00
2018-12-16T04:06:12.175Z,-2.00
2018-12-16T04:08:40.317Z,-2.00
2018-12-16T04:11:08.389Z,-2.00
2018-12-16T04:13:36.476Z,-2.00
2018-12-16T04:16:04.546Z,-2.10
2018-12-16T04:18:32.630Z,-2.10
2018-12-16T04:21:01.524Z,-2.10
2018-12-16T04:23:29.622Z,-2.10
2018-12-16T04:25:57.719Z,-2.10
2018-12-16T04:28:25.852Z,-2.10
2018-12-16T04:30:54.048Z,-2.10
2018-12-16T04:33:22.123Z,-2.20
2018-12-16T04:35:50.185Z,-2.20
2018-12-16T04:38:18.631Z,-2.20
2018-12-16T04:40:46.681Z,-2.20
2018-12-16T04:43:14.909Z,-2.20
2018-12-16T04:45:43.084Z,-2.30
2018-12-16T04:48:11.157Z,-2.30
2018-12-16T04:50:39.329Z,-2.30
2018-12-16T04:53:07.389Z,-2.30
2018-12-16T04:55:35.481Z,-2.40
2018-12-16T04:58:03.650Z,-2.40
2018-12-16T05:00:31.718Z,-2.40
2018-12-16T05:02:59.788Z,-2.40
2018-12-16T05:05:28.002Z,-2.30
2018-12-16T05:07:56.248Z,-2.30
2018-12-16T05:10:30.154Z,-2.30
2018-12-16T05:12:58.254Z,-2.30
2018-12-16T05:15:26.357Z,-2.20
2018-12-16T05:17:54.455Z,-2.20
2018-12-16T05:20:22.984Z,-2.20
2018-12-16T05:22:51.147Z,-2.20
2018-12-16T05:25:19.244Z,-2.20
2018-12-16T05:27:47.305Z,-2.20
2018-12-16T05:30:15.409Z,-2.20
2018-12-16T05:32:43.512Z,-2.20
2018-12-16T05:35:11.649Z,-2.10
2018-12-16T05:37:39.749Z,-2.10
2018-12-16T05:40:07.975Z,-2.10
2018-12-16T05:42:36.130Z,-2.10
2018-12-16T05:45:04.924Z,-2.10
2018-12-16T05:47:32.989Z,-2.10
2018-12-16T05:50:01.367Z,-2.10
2018-12-16T05:52:29.416Z,-2.10
2018-12-16T05:54:57.558Z,-2.00
2018-12-16T05:57:25.732Z,-2.00
2018-12-16T05:59:53.906Z,-0.80
2018-12-16T06:02:22.892Z,-2.00
2018-12-16T06:04:51.384Z,-1.90
2018-12-16T06:07:19.582Z,-1.90
2018-12-16T06:09:47.682Z,-1.80
2018-12-16T06:12:15.780Z,-0.70
2018-12-16T06:14:43.972Z,-1.80
2018-12-16T06:17:12.072Z,-1.70
2018-12-16T06:19:40.169Z,-1.60
2018-12-16T06:22:08.348Z,-1.60
2018-12-16T06:24:36.460Z,-1.50
2018-12-16T06:27:04.539Z,-1.50
2018-12-16T06:29:32.634Z,-1.50
2018-12-16T06:32:00.752Z,-1.40
2018-12-16T06:34:28.848Z,-1.40
2018-12-16T06:36:56.944Z,-1.30
2018-12-16T06:39:25.156Z,-1.30
2018-12-16T06:41:53.324Z,-1.20
2018-12-16T06:44:21.472Z,-1.20
2018-12-16T06:46:49.580Z,-1.20
2018-12-16T06:49:17.680Z,-1.20
2018-12-16T06:51:45.785Z,-1.20
2018-12-16T06:54:13.854Z,-1.10
2018-12-16T06:56:41.922Z,-1.10
2018-12-16T06:59:10.014Z,-1.10
2018-12-16T07:01:38.172Z,-1.10
2018-12-16T07:04:06.237Z,-1.10
2018-12-16T07:06:34.309Z,-1.10
2018-12-16T07:09:02.411Z,-1.00
2018-12-16T07:11:30.518Z,-1.00
2018-12-16T07:13:58.553Z,-1.00
2018-12-16T07:16:26.775Z,-1.00
2018-12-16T07:18:54.850Z,-1.00
2018-12-16T07:21:22.917Z,-1.00
2018-12-16T07:23:51.104Z,-0.90
2018-12-16T07:26:19.353Z,-0.90
2018-12-16T07:28:47.536Z,-0.90
2018-12-16T07:31:15.700Z,-0.80
2018-12-16T07:33:44.606Z,-0.80
2018-12-16T07:36:13.041Z,-0.80
2018-12-16T07:38:41.118Z,-0.80
2018-12-16T07:41:09.387Z,-0.70
2018-12-16T07:43:37.502Z,-0.70
2018-12-16T07:46:05.590Z,-0.70
2018-12-16T07:48:33.796Z,-0.70
2018-12-16T07:51:01.900Z,-0.70
2018-12-16T07:53:29.964Z,-0.70
2018-12-16T07:55:58.075Z,-0.70
2018-12-16T07:58:26.153Z,-0.70
2018-12-16T08:00:54.331Z,-0.70
2018-12-16T08:03:22.503Z,-0.70
2018-12-16T08:05:50.793Z,-0.70
2018-12-16T08:08:18.950Z,-0.70
2018-12-16T08:10:47.026Z,-0.70
2018-12-16T08:13:15.073Z,-0.70
2018-12-16T08:15:43.220Z,-0.60
2018-12-16T08:18:11.315Z,-0.60
2018-12-16T08:20:39.379Z,-0.50
2018-12-16T08:23:07.508Z,-0.60
2018-12-16T08:25:35.581Z,-0.50
2018-12-16T08:28:03.803Z,-0.40
2018-12-16T08:30:31.852Z,-0.40
2018-12-16T08:32:59.963Z,-0.40
2018-12-16T08:35:28.056Z,-0.30
2018-12-16T08:37:56.143Z,-0.30
2018-12-16T08:40:24.214Z,-0.30
2018-12-16T08:42:52.365Z,-0.20
2018-12-16T08:45:20.451Z,-0.20
2018-12-16T08:47:48.612Z,-0.20
2018-12-16T08:50:16.725Z,0.50
2018-12-16T08:52:44.823Z,-0.20
2018-12-16T08:55:12.951Z,-0.20
2018-12-16T08:57:40.980Z,-0.20
2018-12-16T09:00:09.297Z,-0.20
2018-12-16T09:02:37.412Z,-0.20
2018-12-16T09:05:05.891Z,-0.20
2018-12-16T09:07:37.196Z,-0.20
2018-12-16T09:10:08.049Z,-0.20
2018-12-16T09:12:36.389Z,-0.20
2018-12-16T09:15:05.802Z,-0.20
2018-12-16T09:17:33.956Z,-0.20
2018-12-16T09:20:02.688Z,-0.10
2018-12-16T09:22:32.225Z,-0.10
2018-12-16T09:25:00.483Z,-0.10
2018-12-16T09:27:28.573Z,0.00
2018-12-16T09:29:56.688Z,0.00
2018-12-16T09:32:24.749Z,0.00
2018-12-16T09:34:52.890Z,0.00
2018-12-16T09:37:20.955Z,0.10
2018-12-16T09:39:49.043Z,0.10
2018-12-16T09:42:17.615Z,0.10
2018-12-16T09:44:45.971Z,0.10
2018-12-16T09:47:14.117Z,0.10
2018-12-16T09:49:42.281Z,0.10
2018-12-16T09:52:10.444Z,0.10
2018-12-16T09:54:44.189Z,0.10
2018-12-16T09:57:08.803Z,0.10
2018-12-16T09:59:36.991Z,0.10
2018-12-16T10:02:05.150Z,0.10
2018-12-16T10:04:33.189Z,0.10
2018-12-16T10:07:01.298Z,0.20
2018-12-16T10:09:29.357Z,0.20
2018-12-16T10:11:57.534Z,0.20
2018-12-16T10:14:25.625Z,0.20
2018-12-16T10:16:53.694Z,0.30
2018-12-16T10:19:21.740Z,0.30
2018-12-16T10:21:49.902Z,0.40
2018-12-16T10:24:18.008Z,0.40
2018-12-16T10:26:46.285Z,0.40
2018-12-16T10:29:14.354Z,0.30
2018-12-16T10:31:42.436Z,0.30
2018-12-16T10:34:10.613Z,0.30
2018-12-16T10:36:38.740Z,0.30
2018-12-16T10:39:07.172Z,0.30
2018-12-16T10:41:35.219Z,0.30
2018-12-16T10:44:03.550Z,0.30
2018-12-16T10:46:31.626Z,0.30
2018-12-16T10:49:04.740Z,0.30
2018-12-16T10:51:29.862Z,0.30
2018-12-16T10:53:57.951Z,0.30
2018-12-16T10:56:26.054Z,0.30
2018-12-16T10:58:54.151Z,0.30
2018-12-16T11:01:28.238Z,0.30
2018-12-16T11:04:00.748Z,0.30
2018-12-16T11:06:28.818Z,0.40
2018-12-16T11:08:57.020Z,0.40
2018-12-16T11:11:25.096Z,0.40
2018-12-16T11:13:53.192Z,0.40
2018-12-16T11:16:21.252Z,0.40
2018-12-16T11:18:49.362Z,0.40
2018-12-16T11:21:17.431Z,0.40
2018-12-16T11:23:45.640Z,0.40
2018-12-16T11:26:13.717Z,0.40
2018-12-16T11:28:41.806Z,0.40
2018-12-16T11:31:09.991Z,0.40
2018-12-16T11:33:38.121Z,0.40
2018-12-16T11:36:06.267Z,0.40
2018-12-16T11:38:34.410Z,0.50
2018-12-16T11:41:02.593Z,0.50
2018-12-16T11:43:30.684Z,0.50
2018-12-16T11:45:58.756Z,0.50
2018-12-16T11:48:26.927Z,0.50
2018-12-16T11:50:54.998Z,0.40
2018-12-16T11:53:23.053Z,0.40
2018-12-16T11:55:51.282Z,0.40
2018-12-16T11:58:19.388Z,0.40
2018-12-16T12:00:47.532Z,0.40
2018-12-16T12:03:15.688Z,0.40
2018-12-16T12:05:43.724Z,0.30
2018-12-16T12:08:14.614Z,0.30
2018-12-16T12:10:42.800Z,0.30
2018-12-16T12:13:10.880Z,0.30
2018-12-16T12:15:38.940Z,0.30
2018-12-16T12:18:07.019Z,0.30
2018-12-16T12:20:35.094Z,0.20
2018-12-16T12:23:03.175Z,0.20
2018-12-16T12:25:31.497Z,0.30
2018-12-16T12:27:59.739Z,0.30
2018-12-16T12:30:27.947Z,0.30
2018-12-16T12:32:56.016Z,0.30
2018-12-16T12:35:24.099Z,0.40
2018-12-16T12:37:52.153Z,0.40
2018-12-16T12:40:20.258Z,0.40
2018-12-16T12:42:48.376Z,0.40
2018-12-16T12:45:16.471Z,0.40
2018-12-16T12:47:44.562Z,0.40
2018-12-16T12:50:12.625Z,0.40
2018-12-16T12:52:40.765Z,0.40
2018-12-16T12:55:08.858Z,0.40
2018-12-16T12:57:36.944Z,0.40
2018-12-16T13:00:08.978Z,0.40
2018-12-16T13:02:37.102Z,0.50
2018-12-16T13:05:05.438Z,0.50
2018-12-16T13:07:33.776Z,0.50
2018-12-16T13:10:01.859Z,0.50
2018-12-16T13:12:29.912Z,0.60
2018-12-16T13:14:57.993Z,0.60
2018-12-16T13:17:26.080Z,0.60
2018-12-16T13:19:54.153Z,0.60
2018-12-16T13:22:22.549Z,0.60
2018-12-16T13:25:02.549Z,0.60
2018-12-16T13:27:30.620Z,0.70
2018-12-16T13:29:58.692Z,0.80
2018-12-16T13:32:26.799Z,0.80
2018-12-16T13:34:54.911Z,0.80
2018-12-16T13:37:23.003Z,0.70
2018-12-16T13:39:51.200Z,0.70
2018-12-16T13:42:19.632Z,0.70
2018-12-16T13:44:47.731Z,0.70
2018-12-16T13:47:15.815Z,0.70
2018-12-16T13:49:43.948Z,0.70
2018-12-16T13:52:12.133Z,0.70
2018-12-16T13:54:40.304Z,0.60
2018-12-16T13:57:08.382Z,0.60
2018-12-16T13:59:36.481Z,0.60
2018-12-16T14:02:04.822Z,0.60
2018-12-16T14:04:32.946Z,0.60
2018-12-16T14:07:01.076Z,0.60
2018-12-16T14:09:29.137Z,0.60
2018-12-16T14:11:57.321Z,0.60
2018-12-16T14:14:25.377Z,0.70
2018-12-16T14:16:53.450Z,0.70
2018-12-16T14:19:21.515Z,0.70
2018-12-16T14:21:49.601Z,0.70
2018-12-16T14:24:17.707Z,1.20
2018-12-16T14:26:45.844Z,0.60
2018-12-16T14:29:13.998Z,0.60
2018-12-16T14:31:42.077Z,0.60
2018-12-16T14:34:10.192Z,0.60
2018-12-16T14:36:38.274Z,0.60
2018-12-16T14:39:07.045Z,0.60
2018-12-16T14:41:35.123Z,0.60
2018-12-16T14:44:03.378Z,0.60
2018-12-16T14:46:31.477Z,0.60
2018-12-16T14:48:59.547Z,0.60
2018-12-16T14:51:27.659Z,0.60
2018-12-16T14:53:55.728Z,0.60
2018-12-16T14:56:23.859Z,0.50
2018-12-16T14:58:51.906Z,0.50
2018-12-16T15:01:19.974Z,0.50
2018-12-16T15:03:48.047Z,0.50
2018-12-16T15:06:16.153Z,0.50
2018-12-16T15:08:44.379Z,0.50
2018-12-16T15:11:12.525Z,0.50
2018-12-16T15:13:40.636Z,0.50
2018-12-16T15:16:10.166Z,0.50
2018-12-16T15:18:38.492Z,0.50
2018-12-16T15:21:06.696Z,0.50
2018-12-16T15:23:34.748Z,0.50
2018-12-16T15:26:02.820Z,0.50
2018-12-16T15:28:30.918Z,0.50
2018-12-16T15:30:59.095Z,0.50
2018-12-16T15:33:27.211Z,0.50
2018-12-16T15:35:55.268Z,0.50
2018-12-16T15:38:23.360Z,0.50
2018-12-16T15:40:51.557Z,0.50
2018-12-16T15:43:19.651Z,0.50
2018-12-16T15:45:47.754Z,0.50
2018-12-16T15:48:15.832Z,0.50
2018-12-16T15:50:43.882Z,0.50
2018-12-16T15:53:11.969Z,0.50
2018-12-16T15:55:40.073Z,0.50
2018-12-16T15:58:08.191Z,0.50
2018-12-16T16:00:36.235Z,0.50
2018-12-16T16:03:04.325Z,0.50
2018-12-16T16:05:32.500Z,0.50
2018-12-16T16:08:00.570Z,0.50
2018-12-16T16:10:28.747Z,0.50
2018-12-16T16:12:57.139Z,0.50
2018-12-16T16:15:25.206Z,0.60
2018-12-16T16:17:53.427Z,0.60
2018-12-16T16:20:22.104Z,0.60
2018-12-16T16:22:50.198Z,0.60
2018-12-16T16:25:18.367Z,0.60
2018-12-16T16:27:46.443Z,0.60
2018-12-16T16:30:14.532Z,0.60
2018-12-16T16:32:42.707Z,0.60
2018-12-16T16:35:10.783Z,0.60
2018-12-16T16:37:38.955Z,0.60
2018-12-16T16:40:07.643Z,0.60
2018-12-16T16:42:35.801Z,1.00
2018-12-16T16:45:04.739Z,0.70
2018-12-16T16:47:32.844Z,0.70
2018-12-16T16:50:00.915Z,0.70
2018-12-16T16:52:28.999Z,0.70
2018-12-16T16:54:57.070Z,0.70
2018-12-16T16:57:25.179Z,0.70
2018-12-16T16:59:53.282Z,0.70
2018-12-16T17:02:21.591Z,0.70
2018-12-16T17:04:49.701Z,0.70
2018-12-16T17:07:17.874Z,0.80
2018-12-16T17:09:46.044Z,0.80
2018-12-16T17:12:14.727Z,0.80
2018-12-16T17:14:42.825Z,0.80
2018-12-16T17:17:10.999Z,0.80
2018-12-16T17:19:39.165Z,0.80
2018-12-16T17:22:07.307Z,0.80
2018-12-16T17:24:35.600Z,0.80
2018-12-16T17:27:03.748Z,0.80
2018-12-16T17:29:31.950Z,0.80
2018-12-16T17:32:00.128Z,0.80
2018-12-16T17:34:28.272Z,0.80
2018-12-16T17:36:56.474Z,0.80
2018-12-16T17:39:24.631Z,0.80
2018-12-16T17:41:52.799Z,0.80
2018-12-16T17:44:20.889Z,0.80
2018-12-16T17:46:49.136Z,0.80
2018-12-16T17:49:17.197Z,0.90
2018-12-16T17:51:45.253Z,0.90
2018-12-16T17:54:13.383Z,0.90
2018-12-16T17:56:41.458Z,0.90
2018-12-16T17:59:09.563Z,0.90
2018-12-16T18:01:37.899Z,0.90
2018-12-16T18:04:07.969Z,0.90
2018-12-16T18:06:36.036Z,0.90
2018-12-16T18:09:06.160Z,1.00
2018-12-16T18:11:34.209Z,1.00
2018-12-16T18:14:02.276Z,1.00
2018-12-16T18:16:30.372Z,1.00
2018-12-16T18:18:58.460Z,1.00
2018-12-16T18:21:26.555Z,1.00
2018-12-16T18:23:54.689Z,1.00
2018-12-16T18:26:22.759Z,1.00
2018-12-16T18:28:50.849Z,1.10
2018-12-16T18:31:18.944Z,1.10
2018-12-16T18:33:47.034Z,1.10
2018-12-16T18:36:15.115Z,1.10
2018-12-16T18:38:43.187Z,1.10
2018-12-16T18:41:11.261Z,1.10
2018-12-16T18:43:39.336Z,1.10
2018-12-16T18:46:07.468Z,1.10
2018-12-16T18:48:35.551Z,1.10
2018-12-16T18:51:03.699Z,1.10
2018-12-16T18:53:31.798Z,1.10
2018-12-16T18:55:59.906Z,1.10
2018-12-16T18:58:27.973Z,1.20
2018-12-16T19:00:56.145Z,1.20
2018-12-16T19:03:24.221Z,1.20
2018-12-16T19:05:52.292Z,1.20
2018-12-16T19:08:20.348Z,1.20
2018-12-16T19:10:48.417Z,1.20
2018-12-16T19:13:16.598Z,1.20
2018-12-16T19:15:44.670Z,1.20
2018-12-16T19:18:12.747Z,1.20
2018-12-16T19:20:40.870Z,1.20
2018-12-16T19:23:08.930Z,1.20
2018-12-16T19:25:37.138Z,1.20
2018-12-16T19:28:05.191Z,1.20
2018-12-16T19:30:33.262Z,1.20
2018-12-16T19:33:01.341Z,1.20
2018-12-16T19:35:29.429Z,1.20
2018-12-16T19:37:57.477Z,1.20
2018-12-16T19:40:25.598Z,1.20
2018-12-16T19:42:53.803Z,1.20
2018-12-16T19:45:21.846Z,1.20
2018-12-16T19:47:49.934Z,1.20
2018-12-16T19:50:18.007Z,1.30
2018-12-16T19:52:46.113Z,1.30
2018-12-16T19:55:14.991Z,1.30
2018-12-16T19:57:43.124Z,1.30
2018-12-16T20:00:12.335Z,1.30
2018-12-16T20:02:40.424Z,1.30
2018-12-16T20:05:10.598Z,1.30
2018-12-16T20:07:38.672Z,1.30
2018-12-16T20:10:06.828Z,1.30
2018-12-16T20:12:34.970Z,1.30
2018-12-16T20:15:03.804Z,1.30
2018-12-16T20:17:31.942Z,1.30
2018-12-16T20:20:00.025Z,1.30
2018-12-16T20:22:28.220Z,1.30
2018-12-16T20:24:56.291Z,1.30
2018-12-16T20:27:24.373Z,1.40
2018-12-16T20:29:52.479Z,1.40
2018-12-16T20:32:20.658Z,1.40
2018-12-16T20:34:48.851Z,1.40
2018-12-16T20:37:16.893Z,1.40
2018-12-16T20:39:44.995Z,1.40
2018-12-16T20:42:13.622Z,1.40
2018-12-16T20:44:41.756Z,1.40
2018-12-16T20:47:09.877Z,1.40
2018-12-16T20:49:37.939Z,1.50
2018-12-16T20:52:06.072Z,1.50
2018-12-16T20:54:34.152Z,1.50
2018-12-16T20:57:02.223Z,1.50
2018-12-16T20:59:30.396Z,1.50
2018-12-16T21:01:58.518Z,1.50
2018-12-16T21:04:26.621Z,1.50
2018-12-16T21:06:54.795Z,1.50
2018-12-16T21:09:22.867Z,1.50
2018-12-16T21:12:08.244Z,1.50
2018-12-16T21:14:42.136Z,1.50
2018-12-16T21:17:15.906Z,1.50
2018-12-16T21:19:44.078Z,1.50
2018-12-16T21:22:12.172Z,1.50
2018-12-16T21:24:40.314Z,1.50
2018-12-16T21:27:08.436Z,1.50
2018-12-16T21:29:36.549Z,1.50
2018-12-16T21:32:04.633Z,1.50
2018-12-16T21:34:32.702Z,1.50
2018-12-16T21:37:00.781Z,1.50
2018-12-16T21:39:28.953Z,1.50
2018-12-16T21:41:57.003Z,1.50
2018-12-16T21:44:25.083Z,1.50
2018-12-16T21:46:53.151Z,1.60
2018-12-16T21:49:21.325Z,1.60
2018-12-16T21:51:49.488Z,1.60
2018-12-16T21:54:17.603Z,1.50
2018-12-16T21:56:45.776Z,1.60
2018-12-16T21:59:13.950Z,1.60
2018-12-16T22:01:42.125Z,1.60
2018-12-16T22:04:10.256Z,1.30
2018-12-16T22:06:38.307Z,1.50
2018-12-16T22:09:07.218Z,1.60
2018-12-16T22:11:35.391Z,1.60
2018-12-16T22:14:03.559Z,1.60
2018-12-16T22:16:31.673Z,1.60
2018-12-16T22:18:59.754Z,1.60
2018-12-16T22:21:27.821Z,1.60
2018-12-16T22:23:55.938Z,1.60
2018-12-16T22:26:23.996Z,1.60
2018-12-16T22:28:52.098Z,1.60
2018-12-16T22:31:20.163Z,1.60
2018-12-16T22:33:48.239Z,1.60
2018-12-16T22:36:16.323Z,1.60
2018-12-16T22:38:44.393Z,1.70
2018-12-16T22:41:12.566Z,1.70
2018-12-16T22:43:40.619Z,1.70
2018-12-16T22:46:08.861Z,1.70
2018-12-16T22:48:36.935Z,1.70
2018-12-16T22:51:04.990Z,1.70
2018-12-16T22:53:33.044Z,1.70
2018-12-16T22:56:01.226Z,1.70
2018-12-16T22:58:30.061Z,1.70
2018-12-16T23:01:15.929Z,1.70
2018-12-16T23:03:44.073Z,1.70
2018-12-16T23:06:12.255Z,1.70
2018-12-16T23:08:53.189Z,1.70
2018-12-16T23:11:21.291Z,1.70
2018-12-16T23:13:49.700Z,1.70
2018-12-16T23:16:17.780Z,1.70
2018-12-16T23:18:45.898Z,1.70
2018-12-16T23:21:14.045Z,1.70
2018-12-16T23:23:42.142Z,1.70
2018-12-16T23:26:10.316Z,1.70
2018-12-16T23:28:38.429Z,1.70
2018-12-16T23:31:06.610Z,1.70
2018-12-16T23:33:34.776Z,1.70
2018-12-16T23:36:02.837Z,1.80
2018-12-16T23:38:30.892Z,1.80
2018-12-16T23:40:58.968Z,1.80
2018-12-16T23:43:27.083Z,1.80
2018-12-16T23:45:55.165Z,1.80
2018-12-16T23:48:23.254Z,1.80
2018-12-16T23:50:51.362Z,1.80
2018-12-16T23:53:19.422Z,1.80
2018-12-16T23:55:47.830Z,1.80
2018-12-16T23:58:15.944Z,1.80
